Stations météo

réclame
Mon MeteoGroup
Adra, Espagne (8486): Température de l'air & dewpoint: 08.08.2020 21:00:00 - 14.08.2020 21:00:00 (CEST)Adra, Espagne (8486): Vitesse du vent & gusts: 08.08.2020 21:00:00 - 14.08.2020 21:00:00 (CEST)Adra, Espagne (8486): Direction du vent: 08.08.2020 21:00:00 - 14.08.2020 21:00:00 (CEST)Adra, Espagne (8486): reduced air pressure: 08.08.2020 21:00:00 - 14.08.2020 21:00:00 (CEST)
Date & Time tt [°C] td [°C] ff [km/h] ff [knt] fx [km/h] fx [knt] dd ppp [hPa]
14.08.2020 21:00:00 - - - - - - - -
14.08.2020 20:00:00 27,0 21,1 10 5 25 13 SW 1010,7
14.08.2020 19:00:00 26,9 20,3 16 8 31 17 SW 1010,5
14.08.2020 18:00:00 26,5 21,5 17 9 29 15 WSW 1010,5
14.08.2020 17:00:00 26,7 21,7 12 7 23 12 WSW 1010,8
14.08.2020 16:00:00 27,4 21,7 11 6 18 10 SW 1011,4
14.08.2020 15:00:00 29,0 21,8 5 3 11 6 SSW 1011,8
14.08.2020 14:00:00 27,0 21,3 6 4 10 6 SSE 1013,3
14.08.2020 13:00:00 29,0 22,0 4 2 10 5 S 1012,9
14.08.2020 12:00:00 28,1 21,6 3 2 10 5 S 1012,8
14.08.2020 11:00:00 26,7 21,4 4 2 13 7 SSE 1013,0
14.08.2020 10:00:00 25,6 20,9 8 4 13 7 ESE 1013,6
14.08.2020 09:00:00 24,8 14,9 7 4 15 8 E 1013,6
14.08.2020 08:00:00 22,4 16,0 2 1 7 4 NE 1013,5
14.08.2020 07:00:00 21,9 15,5 4 2 7 4 N 1013,2
14.08.2020 06:00:00 22,0 16,5 5 3 9 5 N 1013,2
14.08.2020 05:00:00 22,5 17,2 3 2 8 4 N 1013,0
14.08.2020 04:00:00 22,9 15,3 3 2 7 4 N 1013,3
14.08.2020 03:00:00 23,9 18,3 2 1 12 7 N 1013,6
14.08.2020 02:00:00 23,4 14,1 4 2 7 4 N 1014,3
14.08.2020 01:00:00 23,6 18,0 4 2 18 10 NNW 1014,3
14.08.2020 00:00:00 24,8 18,5 9 5 16 9 W 1014,3
13.08.2020 23:00:00 24,4 18,1 1 0 14 8 NNW 1014,3
13.08.2020 22:00:00 25,3 20,5 12 6 29 15 W 1013,6
13.08.2020 21:00:00 26,0 18,7 18 10 26 14 WSW 1012,8
13.08.2020 20:00:00 26,5 19,6 16 9 28 15 WSW 1011,8
13.08.2020 19:00:00 26,4 21,2 18 10 29 16 SW 1011,2
13.08.2020 18:00:00 26,1 20,4 20 11 37 20 WSW 1011,3
13.08.2020 17:00:00 25,8 21,1 23 12 35 19 WSW 1011,8
13.08.2020 16:00:00 26,0 21,4 19 11 32 17 SW 1012,5
13.08.2020 15:00:00 26,2 21,8 19 10 29 16 SW 1013,0
13.08.2020 14:00:00 26,3 21,7 18 10 29 16 WSW 1013,8
13.08.2020 13:00:00 26,5 22,1 15 8 24 13 WSW 1013,7
13.08.2020 12:00:00 26,3 21,1 13 7 19 10 SW 1014,1
13.08.2020 11:00:00 25,9 21,3 13 7 21 11 W 1013,8
13.08.2020 10:00:00 25,5 20,3 8 4 13 7 SW 1014,0
13.08.2020 09:00:00 25,2 20,9 3 2 6 3 SW 1014,1
13.08.2020 08:00:00 22,7 19,6 3 2 6 3 N 1015,1
13.08.2020 07:00:00 21,6 19,3 2 1 8 4 N 1015,0
13.08.2020 06:00:00 23,0 21,6 5 3 24 13 W 1013,9
13.08.2020 05:00:00 24,2 21,9 10 6 22 12 SSW 1013,5
13.08.2020 04:00:00 23,7 19,4 5 3 11 6 W 1013,5
13.08.2020 03:00:00 23,3 18,6 3 2 25 13 NW 1014,0
13.08.2020 02:00:00 24,6 21,5 12 6 21 11 W 1014,3
13.08.2020 01:00:00 25,7 21,8 12 7 22 12 W 1014,0
13.08.2020 00:00:00 24,9 19,5 8 5 15 8 W 1013,8
12.08.2020 23:00:00 25,5 22,2 13 7 32 17 W 1013,6
12.08.2020 22:00:00 25,7 20,9 20 11 36 19 W 1012,8
12.08.2020 21:00:00 26,0 20,5 24 13 38 21 W 1011,8
12.08.2020 20:00:00 26,2 20,3 23 12 40 22 WSW 1011,3
12.08.2020 19:00:00 26,4 20,5 24 13 38 20 WSW 1011,5
12.08.2020 18:00:00 26,6 20,2 18 10 34 18 WSW 1011,9
12.08.2020 17:00:00 26,1 20,2 21 11 34 18 SW 1012,2
12.08.2020 16:00:00 26,3 21,1 19 11 33 18 SW 1013,1
12.08.2020 15:00:00 26,1 21,3 16 9 31 17 SW 1013,4
12.08.2020 14:00:00 26,5 22,1 14 8 24 13 SW 1014,0
12.08.2020 13:00:00 27,5 22,2 10 5 18 10 SW 1013,8
12.08.2020 12:00:00 27,1 22,7 10 5 18 10 SW 1013,8
12.08.2020 11:00:00 26,5 22,6 9 5 20 11 SW 1013,4
12.08.2020 10:00:00 26,0 22,9 9 5 18 10 SW 1013,4
12.08.2020 09:00:00 25,1 23,0 11 6 17 9 W 1013,6
12.08.2020 08:00:00 24,5 23,1 9 5 24 13 W 1013,4
12.08.2020 07:00:00 24,7 23,7 17 9 25 13 W 1012,5
12.08.2020 06:00:00 24,9 24,0 15 8 25 14 W 1012,3
12.08.2020 05:00:00 25,4 24,5 14 7 25 13 W 1012,2
12.08.2020 04:00:00 25,5 24,6 13 7 24 13 WSW 1012,2
12.08.2020 03:00:00 26,2 24,6 9 5 15 8 W 1012,2
12.08.2020 02:00:00 26,6 24,5 3 2 14 8 ESE 1012,2
12.08.2020 01:00:00 27,0 24,6 5 3 13 7 SSW 1012,1
12.08.2020 00:00:00 26,9 24,4 4 2 12 7 SW 1012,0
11.08.2020 23:00:00 27,0 24,6 5 3 14 8 SSW 1011,7
11.08.2020 22:00:00 26,6 24,6 8 4 24 13 SW 1011,5
11.08.2020 21:00:00 27,1 24,9 12 7 23 12 SSW 1010,6
11.08.2020 20:00:00 26,6 24,6 14 8 36 19 W 1009,6
11.08.2020 19:00:00 28,3 24,5 11 6 19 10 WSW 1007,9
11.08.2020 18:00:00 30,0 24,2 6 3 11 6 SSW 1008,0
11.08.2020 17:00:00 29,7 24,1 4 2 10 5 SW 1009,2
11.08.2020 16:00:00 30,1 23,6 3 2 23 12 S 1009,0
11.08.2020 15:00:00 29,0 23,7 11 6 29 16 SE 1008,9
11.08.2020 14:00:00 30,8 20,7 16 9 35 19 E 1008,1
11.08.2020 13:00:00 28,7 23,6 15 8 32 18 ESE 1009,4
11.08.2020 12:00:00 28,4 24,0 10 6 28 15 SE 1010,0
11.08.2020 11:00:00 27,1 24,2 13 7 26 14 E 1009,0
11.08.2020 10:00:00 27,2 24,1 11 6 29 15 E 1009,6
11.08.2020 09:00:00 26,9 22,9 6 3 15 8 E 1010,3
11.08.2020 08:00:00 26,9 22,7 5 3 13 7 WSW 1010,9
11.08.2020 07:00:00 26,6 23,0 1 1 33 18 WSW 1009,7
11.08.2020 06:00:00 27,0 23,7 23 13 34 19 W 1009,5
11.08.2020 05:00:00 27,9 20,2 8 5 20 11 SW 1007,6
11.08.2020 04:00:00 30,0 16,8 9 5 21 12 NNE 1007,1
11.08.2020 03:00:00 28,5 19,4 7 4 20 11 E 1009,1
11.08.2020 02:00:00 29,6 19,3 5 3 31 17 NE 1009,6
11.08.2020 01:00:00 28,5 20,8 9 5 26 14 ENE 1010,7
11.08.2020 00:00:00 28,4 21,2 10 5 24 13 NNE 1011,7
10.08.2020 23:00:00 27,1 22,5 2 1 27 14 E 1013,4
10.08.2020 22:00:00 26,1 24,0 18 10 29 15 W 1013,7
10.08.2020 21:00:00 26,4 23,5 24 13 45 24 W 1012,1
10.08.2020 20:00:00 29,2 22,2 9 5 25 14 ESE 1007,7
10.08.2020 19:00:00 29,4 22,1 5 3 19 10 ENE 1007,5
10.08.2020 18:00:00 28,5 21,5 10 6 20 11 ENE 1008,0
10.08.2020 17:00:00 28,5 21,5 4 2 29 16 SSE 1009,4
10.08.2020 16:00:00 27,9 23,5 19 11 30 16 W 1010,9
10.08.2020 15:00:00 30,0 21,9 5 3 16 9 SW 1009,4
10.08.2020 14:00:00 30,2 22,4 3 1 16 9 SSE 1008,9
10.08.2020 13:00:00 28,8 22,8 8 4 23 12 SW 1010,2
10.08.2020 12:00:00 27,5 23,3 15 8 30 16 W 1010,9
10.08.2020 11:00:00 28,4 23,5 2 1 14 8 S 1009,5
10.08.2020 10:00:00 25,8 24,6 11 6 32 17 WSW 1011,7
10.08.2020 09:00:00 25,7 23,9 23 12 37 20 W 1011,9
10.08.2020 08:00:00 26,9 20,3 16 9 27 15 W 1011,3
10.08.2020 07:00:00 27,9 14,9 1 1 13 7 W 1010,2
10.08.2020 06:00:00 27,4 15,4 5 3 16 8 NE 1009,7
10.08.2020 05:00:00 26,4 24,5 7 4 18 10 W 1011,1
10.08.2020 04:00:00 26,0 24,9 1 1 13 7 WNW 1011,4
10.08.2020 03:00:00 26,1 24,7 2 1 11 6 SE 1011,6
10.08.2020 02:00:00 26,2 24,4 4 2 8 4 E 1011,9
10.08.2020 01:00:00 26,5 24,4 1 1 21 11 E 1012,5
10.08.2020 00:00:00 26,2 22,7 9 5 17 9 E 1012,1
09.08.2020 23:00:00 26,9 22,9 3 2 6 3 ESE 1012,9
09.08.2020 22:00:00 26,8 22,4 2 1 5 3 S 1012,5
09.08.2020 21:00:00 27,5 22,0 2 1 7 4 S 1012,1
09.08.2020 20:00:00 28,7 21,7 4 2 10 5 SW 1011,5
09.08.2020 19:00:00 28,3 20,6 6 4 10 5 SE 1011,4
09.08.2020 18:00:00 29,5 20,1 5 3 9 5 SSE 1011,6
09.08.2020 17:00:00 31,0 19,7 2 1 11 6 S 1011,8
09.08.2020 16:00:00 29,7 21,1 6 3 16 8 SW 1012,5
09.08.2020 15:00:00 28,9 22,1 9 5 16 8 SW 1013,3
09.08.2020 14:00:00 29,1 22,6 8 4 17 9 SW 1014,1
09.08.2020 13:00:00 28,5 22,7 11 6 18 10 SW 1014,7
09.08.2020 12:00:00 28,2 22,7 9 5 16 9 SW 1014,5
09.08.2020 11:00:00 27,7 22,6 8 4 12 7 SW 1014,6
09.08.2020 10:00:00 31,6 19,6 1 1 5 3 S 1014,1
09.08.2020 09:00:00 29,1 16,0 1 0 4 2 ENE 1014,4
09.08.2020 08:00:00 25,5 15,5 3 1 17 9 N 1015,5
09.08.2020 07:00:00 25,5 19,6 11 6 17 9 W 1015,2
09.08.2020 06:00:00 26,0 20,5 5 3 11 6 W 1014,9
09.08.2020 05:00:00 25,6 18,8 2 1 15 8 NNW 1014,8
09.08.2020 04:00:00 25,1 22,0 3 1 9 5 ENE 1015,1
09.08.2020 03:00:00 26,6 22,4 4 2 19 11 SE 1015,6
09.08.2020 02:00:00 25,6 23,9 4 2 9 5 ENE 1015,9
09.08.2020 01:00:00 25,7 23,9 3 1 10 6 W 1016,5
09.08.2020 00:00:00 25,8 24,2 5 3 11 6 SW 1016,8
08.08.2020 23:00:00 25,9 24,0 5 3 8 4 WSW 1016,7
08.08.2020 22:00:00 26,0 24,0 3 2 8 4 WSW 1016,1
08.08.2020 21:00:00 26,5 24,1 3 2 7 4 SW 1015,6

tt = Température de l'air
td = dewpoint
ff = Vitesse du vent
fx = gusts
dd = Direction du vent
ppp = reduced air pressure

stations d'obs. à proximité